Time;durP1;ratioP1;P1;durP2;ratioP2;P2;SDS_P1;SDS_P2;PMS_P1;PMS_P2;Temp;Humidity;BMP_temperature;BMP_pressure;BME280_temperature;BME280_humidity;BME280_pressure;Samples;Min_cycle;Max_cycle;Signal;HPM_P1;HPM_P2
2023/11/05 00:36:27;;;;;;;8.43;4.10;;;5.20;99.90;;;;;;1947357;72;27542;-88
2023/11/05 00:39:16;;;;;;;8.33;4.23;;;5.20;99.90;;;;;;1931812;73;25241;-90
2023/11/05 00:42:05;;;;;;;12.03;4.50;;;5.20;99.90;;;;;;1923368;73;26459;-90
2023/11/05 00:48:09;;;;;;;10.97;5.03;;;5.20;99.90;;;;;;1956225;71;27529;-87
2023/11/05 00:50:57;;;;;;;15.47;4.83;;;5.20;99.90;;;;;;2056473;68;25333;-90
2023/11/05 00:53:47;;;;;;;13.73;5.67;;;5.10;99.90;;;;;;2054294;68;25258;-90
2023/11/05 00:56:35;;;;;;;13.70;5.07;;;5.10;99.90;;;;;;2051401;69;25556;-90
2023/11/05 00:59:24;;;;;;;10.60;5.30;;;5.10;99.90;;;;;;2051693;68;25604;-90
2023/11/05 01:04:58;;;;;;;12.90;5.67;;;5.20;99.90;;;;;;1951111;72;27001;-88
2023/11/05 01:07:46;;;;;;;17.23;5.90;;;5.10;99.90;;;;;;1954642;73;25227;-89
2023/11/05 01:10:35;;;;;;;13.30;6.37;;;5.10;99.90;;;;;;1951998;73;25226;-90
2023/11/05 01:13:24;;;;;;;16.50;6.40;;;5.20;99.90;;;;;;1954149;72;25725;-90
2023/11/05 01:16:12;;;;;;;15.57;5.83;;;5.20;99.90;;;;;;1956568;73;25681;-90
2023/11/05 01:32:29;;;;;;;16.63;5.70;;;5.20;99.90;;;;;;1884070;74;27161;-90
2023/11/05 01:38:12;;;;;;;16.20;6.37;;;5.10;99.90;;;;;;1945363;72;27120;-88
2023/11/05 01:41:01;;;;;;;19.63;6.40;;;5.00;99.90;;;;;;1916840;73;25205;-88
2023/11/05 01:59:04;;;;;;;42.37;10.77;;;4.90;99.90;;;;;;1915326;73;27069;-90
2023/11/05 02:04:48;;;;;;;38.80;8.80;;;4.90;99.90;;;;;;1945691;72;28503;-88
2023/11/05 02:07:37;;;;;;;28.63;8.50;;;4.80;99.90;;;;;;1925591;73;25281;-88
2023/11/05 02:10:25;;;;;;;27.73;8.10;;;4.80;99.90;;;;;;1916897;73;25233;-90
2023/11/05 02:30:23;;;;;;;72.33;10.57;;;5.10;99.90;;;;;;1943361;72;27441;-90
2023/11/05 02:33:12;;;;;;;33.43;8.30;;;5.00;99.90;;;;;;1927590;73;25282;-90
2023/11/05 02:36:00;;;;;;;71.10;10.43;;;5.00;99.90;;;;;;1928423;73;25260;-88
2023/11/05 02:38:48;;;;;;;24.77;7.97;;;5.00;99.90;;;;;;1926112;73;25264;-89
2023/11/05 02:57:57;;;;;;;28.70;6.97;;;4.90;99.90;;;;;;1944340;72;26761;-88
2023/11/05 03:03:37;;;;;;;18.23;7.60;;;4.90;99.90;;;;;;1941347;72;27018;-88
2023/11/05 03:06:26;;;;;;;140.30;11.67;;;5.00;99.90;;;;;;1937595;73;25264;-89
2023/11/05 03:09:15;;;;;;;49.00;8.60;;;4.90;99.90;;;;;;1942783;73;25284;-88
2023/11/05 03:12:05;;;;;;;22.80;7.80;;;4.80;99.90;;;;;;1937873;73;25784;-88
2023/11/05 03:14:54;;;;;;;26.10;8.47;;;4.80;99.90;;;;;;1932429;73;25379;-88
2023/11/05 03:17:43;;;;;;;27.47;8.63;;;4.70;99.90;;;;;;1934841;72;25221;-89
2023/11/05 03:34:01;;;;;;;24.00;8.03;;;4.60;99.90;;;;;;1885390;74;27191;-89
2023/11/05 03:51:27;;;;;;;38.50;12.80;;;4.70;99.90;;;;;;1961563;72;27035;-88
2023/11/05 03:57:15;;;;;;;31.40;9.20;;;5.20;99.90;;;;;;1960981;72;27158;-88
2023/11/05 04:02:46;;;;;;;25.90;8.20;;;5.30;99.90;;;;;;1938475;72;27096;-88
2023/11/05 04:05:37;;;;;;;26.17;8.03;;;5.40;99.90;;;;;;1896055;75;25322;-90
2023/11/05 04:40:36;;;;;;;15.97;6.73;;;5.70;99.90;;;;;;1958734;72;26269;-88
2023/11/05 04:43:25;;;;;;;14.03;6.47;;;5.70;99.90;;;;;;1915854;73;25265;-90
2023/11/05 04:46:15;;;;;;;19.53;6.87;;;5.70;99.90;;;;;;1977354;70;25258;-90
2023/11/05 04:49:03;;;;;;;16.23;5.87;;;5.70;99.90;;;;;;1981865;70;26299;-90
2023/11/05 05:09:50;;;;;;;14.03;4.50;;;5.90;99.90;;;;;;1940916;72;27475;-89
2023/11/05 05:12:38;;;;;;;8.87;3.03;;;5.80;99.90;;;;;;1909054;73;25678;-88
2023/11/05 05:15:27;;;;;;;12.53;4.80;;;5.80;99.90;;;;;;1935243;73;25177;-90
2023/11/05 05:21:02;;;;;;;17.53;5.23;;;5.80;99.90;;;;;;1944029;72;27760;-88
2023/11/05 05:23:51;;;;;;;12.50;4.43;;;5.90;99.90;;;;;;1918130;73;25162;-88
2023/11/05 05:26:39;;;;;;;13.07;4.90;;;5.90;99.90;;;;;;1920044;73;25683;-88
2023/11/05 05:29:28;;;;;;;9.80;4.53;;;5.90;99.90;;;;;;1919730;73;25339;-87
2023/11/05 05:32:16;;;;;;;9.67;3.50;;;5.90;99.90;;;;;;1919652;73;25874;-88
2023/11/05 05:35:06;;;;;;;14.77;4.30;;;5.90;99.90;;;;;;1919107;73;25286;-89
2023/11/05 05:40:48;;;;;;;14.13;5.13;;;6.00;99.90;;;;;;1940834;72;27043;-88
2023/11/05 05:46:31;;;;;;;12.67;4.77;;;5.90;99.90;;;;;;1943874;72;26967;-90
2023/11/05 05:49:20;;;;;;;14.63;4.77;;;5.90;99.90;;;;;;1928028;73;25223;-90
2023/11/05 05:55:02;;;;;;;9.10;4.20;;;5.90;99.90;;;;;;1946155;72;26905;-90
2023/11/05 05:57:51;;;;;;;8.23;4.10;;;6.00;99.90;;;;;;1932084;72;25164;-89
2023/11/05 06:04:31;;;;;;;14.50;4.00;;;6.00;99.90;;;;;;1976457;71;26391;-87
2023/11/05 06:07:19;;;;;;;12.37;4.53;;;5.90;99.90;;;;;;2019981;69;26151;-87
2023/11/05 06:10:11;;;;;;;12.40;4.10;;;5.90;99.90;;;;;;2014742;69;25332;-88
2023/11/05 06:13:00;;;;;;;8.87;3.50;;;5.90;99.90;;;;;;2013548;70;25669;-87
2023/11/05 06:15:48;;;;;;;8.50;4.20;;;6.00;99.90;;;;;;2011456;69;25519;-87
2023/11/05 06:18:37;;;;;;;8.77;3.93;;;6.00;99.90;;;;;;2019197;69;25716;-90
2023/11/05 06:21:26;;;;;;;13.23;3.83;;;6.00;99.90;;;;;;2010243;70;25688;-89
2023/11/05 06:24:14;;;;;;;8.90;4.07;;;6.00;99.90;;;;;;2014278;69;25327;-89
2023/11/05 06:45:02;;;;;;;9.97;3.73;;;6.00;99.90;;;;;;1969339;71;26019;-90
2023/11/05 06:47:51;;;;;;;7.83;3.03;;;5.90;99.90;;;;;;1992332;70;25151;-89
2023/11/05 06:50:40;;;;;;;5.33;2.30;;;5.90;99.90;;;;;;2011579;68;25239;-89
2023/11/05 06:53:29;;;;;;;6.10;3.10;;;5.90;99.90;;;;;;1994532;70;25198;-90
2023/11/05 07:12:15;;;;;;;7.67;3.63;;;5.90;99.90;;;;;;1940391;72;27062;-87
2023/11/05 07:15:03;;;;;;;3.37;2.40;;;5.90;99.90;;;;;;1944631;73;25326;-88
2023/11/05 07:17:52;;;;;;;5.47;3.50;;;5.90;99.90;;;;;;1936955;72;25310;-87
2023/11/05 07:20:41;;;;;;;8.93;4.10;;;5.90;99.90;;;;;;1901683;73;25262;-88
2023/11/05 07:23:29;;;;;;;9.40;3.73;;;5.90;99.90;;;;;;1943964;73;25276;-88
2023/11/05 07:29:12;;;;;;;5.77;3.37;;;5.90;99.90;;;;;;1946982;72;26664;-88
2023/11/05 07:32:01;;;;;;;6.90;3.27;;;5.90;99.90;;;;;;1918840;73;25232;-90
2023/11/05 07:34:51;;;;;;;8.37;3.20;;;5.90;99.90;;;;;;1923471;73;25815;-89
2023/11/05 07:42:55;;;;;;;7.40;4.00;;;5.80;99.90;;;;;;1995439;71;25956;-87
2023/11/05 07:45:44;;;;;;;7.90;4.10;;;5.80;99.90;;;;;;1902452;74;25192;-89
2023/11/05 07:48:32;;;;;;;7.90;3.60;;;5.80;99.90;;;;;;1957138;71;25221;-89
2023/11/05 07:54:36;;;;;;;3.67;2.67;;;5.90;99.90;;;;;;1954705;70;27738;-87
2023/11/05 07:57:26;;;;;;;12.77;3.77;;;5.90;99.90;;;;;;1965148;72;25344;-89
2023/11/05 08:32:17;;;;;;;7.13;3.87;;;6.40;99.90;;;;;;1948329;72;27124;-87
2023/11/05 08:35:04;;;;;;;9.90;3.90;;;6.30;99.90;;;;;;1929306;72;25258;-88
2023/11/05 08:37:53;;;;;;;9.47;4.20;;;6.30;99.90;;;;;;1934229;73;25253;-88
2023/11/05 08:40:42;;;;;;;12.67;4.47;;;6.30;99.90;;;;;;1929806;72;25720;-88
2023/11/05 08:46:17;;;;;;;7.80;3.50;;;6.40;99.90;;;;;;1958869;72;26338;-87
2023/11/05 08:49:06;;;;;;;12.37;4.80;;;6.40;99.90;;;;;;1921837;73;25193;-89
2023/11/05 08:51:57;;;;;;;11.97;5.40;;;6.40;99.90;;;;;;1918313;73;25270;-89
2023/11/05 08:54:45;;;;;;;14.27;4.80;;;6.50;99.90;;;;;;1921676;73;25283;-89
2023/11/05 08:57:34;;;;;;;10.23;5.40;;;6.50;99.90;;;;;;1938560;73;25327;-89
2023/11/05 09:00:25;;;;;;;14.70;5.57;;;6.50;99.90;;;;;;1918087;73;25724;-91
2023/11/05 09:03:14;;;;;;;14.87;6.70;;;6.60;99.90;;;;;;1925824;73;25241;-89
2023/11/05 09:06:02;;;;;;;12.47;5.43;;;6.60;99.90;;;;;;1938428;73;25774;-89
2023/11/05 09:08:51;;;;;;;14.30;5.43;;;6.60;99.90;;;;;;1920263;73;25828;-89
2023/11/05 09:11:39;;;;;;;12.33;4.23;;;6.60;99.90;;;;;;1921508;73;25288;-89
2023/11/05 09:14:28;;;;;;;13.73;5.83;;;6.70;99.90;;;;;;1923179;73;25210;-89
2023/11/05 09:17:17;;;;;;;13.93;4.93;;;6.60;99.90;;;;;;1919358;73;25291;-89
2023/11/05 09:20:09;;;;;;;10.93;5.20;;;6.60;99.90;;;;;;1934314;73;25651;-89
2023/11/05 09:22:56;;;;;;;16.83;6.17;;;6.60;99.90;;;;;;1918394;73;25324;-89
2023/11/05 09:28:25;;;;;;;8.23;4.37;;;6.60;99.90;;;;;;1927824;72;27080;-89
2023/11/05 09:31:14;;;;;;;10.40;5.60;;;6.60;99.90;;;;;;1867128;75;25169;-89
2023/11/05 09:34:04;;;;;;;11.43;5.83;;;6.60;99.90;;;;;;1876079;75;25158;-88
2023/11/05 09:36:54;;;;;;;9.93;5.07;;;6.60;99.90;;;;;;1869531;75;25227;-88
2023/11/05 09:39:43;;;;;;;16.17;5.67;;;6.60;99.90;;;;;;1868405;75;25179;-88
2023/11/05 09:45:28;;;;;;;7.87;4.20;;;6.50;99.90;;;;;;1947524;72;27025;-88
2023/11/05 09:48:18;;;;;;;9.70;5.27;;;6.60;99.90;;;;;;1923318;73;25223;-89
2023/11/05 09:51:09;;;;;;;6.93;4.13;;;6.60;99.90;;;;;;1925869;72;25530;-89
2023/11/05 09:53:58;;;;;;;6.57;3.93;;;6.60;99.90;;;;;;1927589;73;25722;-89
2023/11/05 09:56:46;;;;;;;12.67;5.87;;;6.60;99.90;;;;;;1933977;73;25223;-90
2023/11/05 09:59:35;;;;;;;10.03;5.17;;;6.60;99.90;;;;;;1924607;73;25304;-89
2023/11/05 10:02:24;;;;;;;10.00;5.50;;;6.60;99.90;;;;;;1933746;72;25293;-89
2023/11/05 10:05:12;;;;;;;6.73;4.80;;;6.60;99.90;;;;;;1931981;72;25249;-89
2023/11/05 10:08:01;;;;;;;11.73;5.47;;;6.70;99.90;;;;;;1918355;73;25278;-90
2023/11/05 10:10:52;;;;;;;10.43;5.17;;;6.80;99.90;;;;;;1941577;73;25165;-90
2023/11/05 10:30:10;;;;;;;11.70;4.83;;;6.90;99.90;;;;;;1907920;74;27174;-88
2023/11/05 10:35:51;;;;;;;9.73;4.50;;;7.20;99.90;;;;;;1944278;72;27080;-89
2023/11/05 10:38:42;;;;;;;10.57;5.07;;;7.20;99.90;;;;;;1929717;72;25721;-89
2023/11/05 10:41:31;;;;;;;8.27;4.67;;;7.30;99.90;;;;;;1934148;73;25741;-89
2023/11/05 10:44:21;;;;;;;10.53;5.53;;;7.20;99.90;;;;;;1900233;74;25785;-89
2023/11/05 10:47:11;;;;;;;10.27;4.90;;;7.20;99.90;;;;;;1901601;75;25251;-89
2023/11/05 10:50:01;;;;;;;10.70;5.83;;;7.30;99.90;;;;;;1915171;74;25279;-90
2023/11/05 11:07:18;;;;;;;7.50;4.57;;;7.40;99.90;;;;;;1899668;73;26133;-88
2023/11/05 11:10:09;;;;;;;9.37;5.30;;;7.30;99.90;;;;;;1888667;76;25300;-88
2023/11/05 11:12:57;;;;;;;12.33;4.10;;;7.30;99.90;;;;;;1868472;75;25237;-88
2023/11/05 11:32:04;;;;;;;9.47;4.93;;;7.50;99.90;;;;;;1950309;72;26978;-90
2023/11/05 11:34:53;;;;;;;5.87;3.37;;;7.40;99.90;;;;;;1937110;73;25199;-91
2023/11/05 11:37:41;;;;;;;7.43;4.43;;;7.40;99.90;;;;;;1918948;73;25315;-91
2023/11/05 11:43:13;;;;;;;9.57;4.47;;;7.40;99.90;;;;;;1927293;73;26869;-91
2023/11/05 11:48:53;;;;;;;12.17;4.07;;;7.50;99.90;;;;;;1941919;72;27131;-89
2023/11/05 11:51:42;;;;;;;10.27;4.77;;;7.50;99.90;;;;;;1919526;74;25275;-89
2023/11/05 11:54:31;;;;;;;7.93;4.70;;;7.60;99.90;;;;;;1932721;73;25707;-89
2023/11/05 11:57:20;;;;;;;8.93;4.63;;;7.60;99.90;;;;;;1917475;72;25691;-89
2023/11/05 12:03:04;;;;;;;5.83;2.50;;;7.60;99.90;;;;;;1912628;74;27570;-89
2023/11/05 12:05:53;;;;;;;8.93;4.83;;;7.60;99.90;;;;;;1909944;75;25523;-91
2023/11/05 12:08:43;;;;;;;8.77;5.37;;;7.50;99.90;;;;;;1911847;75;25215;-91
2023/11/05 12:11:32;;;;;;;9.50;3.77;;;7.60;99.90;;;;;;1915938;75;25244;-89
2023/11/05 12:14:22;;;;;;;14.60;4.87;;;7.60;99.90;;;;;;1910441;75;25387;-89
2023/11/05 12:17:10;;;;;;;9.07;5.40;;;7.60;99.90;;;;;;1898841;75;25289;-91
2023/11/05 12:19:59;;;;;;;12.77;5.63;;;7.60;99.90;;;;;;1911733;75;25817;-90
2023/11/05 12:25:28;;;;;;;11.07;5.40;;;7.60;99.90;;;;;;1924739;74;27054;-89
2023/11/05 12:30:58;;;;;;;13.87;6.10;;;7.70;99.90;;;;;;1897358;74;27129;-91
2023/11/05 12:33:49;;;;;;;10.20;5.57;;;7.70;99.90;;;;;;1869950;76;25232;-90
2023/11/05 12:36:37;;;;;;;15.53;5.80;;;7.80;99.90;;;;;;1870778;76;25294;-89
2023/11/05 12:39:26;;;;;;;16.13;5.23;;;7.70;99.90;;;;;;1866161;76;25631;-89
2023/11/05 12:42:16;;;;;;;12.97;5.93;;;7.70;99.90;;;;;;1878436;76;25901;-90
2023/11/05 12:45:05;;;;;;;14.73;5.53;;;7.70;99.90;;;;;;1810675;78;25333;-90
2023/11/05 12:47:54;;;;;;;9.67;3.40;;;7.60;99.90;;;;;;1825008;77;25246;-89
2023/11/05 12:50:42;;;;;;;9.83;4.43;;;7.60;99.90;;;;;;1827725;77;25750;-89
2023/11/05 12:53:31;;;;;;;12.20;4.97;;;7.60;99.90;;;;;;1827630;77;25215;-89
2023/11/05 12:56:20;;;;;;;8.90;4.57;;;7.60;99.90;;;;;;1833365;77;25195;-89
2023/11/05 12:59:09;;;;;;;12.63;4.97;;;7.60;99.90;;;;;;1839089;77;25312;-89
2023/11/05 13:01:58;;;;;;;13.83;5.83;;;7.60;99.90;;;;;;1830577;78;25311;-89
2023/11/05 13:04:47;;;;;;;10.13;5.67;;;7.60;99.90;;;;;;1835856;77;25383;-90
2023/11/05 13:07:36;;;;;;;14.87;6.07;;;7.60;99.90;;;;;;1834834;77;25230;-90
2023/11/05 13:10:24;;;;;;;8.00;4.37;;;7.60;99.90;;;;;;1830616;77;25355;-89
2023/11/05 13:15:53;;;;;;;11.37;4.30;;;7.60;99.90;;;;;;1964284;72;26824;-89
2023/11/05 13:18:42;;;;;;;11.73;4.90;;;7.60;99.90;;;;;;1928608;73;25245;-91
2023/11/05 13:21:31;;;;;;;14.80;5.77;;;7.50;99.90;;;;;;1916364;75;25915;-91
2023/11/05 13:24:20;;;;;;;15.03;5.90;;;7.50;99.90;;;;;;1917739;73;25197;-91
2023/11/05 13:27:08;;;;;;;13.93;5.10;;;7.50;99.90;;;;;;1929422;73;25276;-89
2023/11/05 13:29:57;;;;;;;16.47;5.90;;;7.50;99.90;;;;;;1929175;73;25776;-90
2023/11/05 13:32:46;;;;;;;11.27;5.87;;;7.60;99.90;;;;;;1930908;73;25219;-90
2023/11/05 13:35:35;;;;;;;16.47;6.90;;;7.60;99.90;;;;;;1944342;73;25235;-91
2023/11/05 13:38:23;;;;;;;13.27;5.90;;;7.60;99.90;;;;;;1925277;73;25741;-90
2023/11/05 13:41:12;;;;;;;10.47;6.13;;;7.60;99.90;;;;;;1935323;73;25241;-90
2023/11/05 13:49:14;;;;;;;10.90;6.20;;;7.50;99.90;;;;;;1993261;71;26523;-90
2023/11/05 13:52:03;;;;;;;10.67;5.10;;;7.50;99.90;;;;;;1965240;72;25209;-91
2023/11/05 13:54:52;;;;;;;11.33;5.40;;;7.40;99.90;;;;;;2044295;69;25245;-91
2023/11/05 13:57:43;;;;;;;14.13;6.57;;;7.40;99.90;;;;;;2054613;69;25684;-91
2023/11/05 14:00:31;;;;;;;13.17;5.50;;;7.50;99.90;;;;;;2032589;69;25644;-90
2023/11/05 14:03:20;;;;;;;8.53;4.70;;;7.50;99.90;;;;;;2033790;69;26057;-90
2023/11/05 14:06:09;;;;;;;13.17;6.90;;;7.40;99.90;;;;;;1976288;71;25525;-90
2023/11/05 14:09:00;;;;;;;11.27;5.53;;;7.40;99.90;;;;;;2046528;69;26510;-90
2023/11/05 14:11:52;;;;;;;13.97;5.60;;;7.40;99.90;;;;;;2045284;69;25703;-92
2023/11/05 14:14:39;;;;;;;16.77;6.47;;;7.40;99.90;;;;;;2045887;69;25245;-88
2023/11/05 14:17:30;;;;;;;10.60;6.30;;;7.40;99.90;;;;;;2050604;69;25206;-90
2023/11/05 14:20:18;;;;;;;17.67;6.90;;;7.40;99.90;;;;;;2044039;69;25267;-89
2023/11/05 14:23:11;;;;;;;13.07;5.53;;;7.40;99.90;;;;;;2032428;69;25627;-90
2023/11/05 14:25:58;;;;;;;14.37;6.70;;;7.40;99.90;;;;;;2032879;69;25233;-90
2023/11/05 14:31:26;;;;;;;10.47;6.73;;;7.40;99.90;;;;;;1949441;72;27549;-88
2023/11/05 14:34:15;;;;;;;14.53;6.20;;;7.40;99.90;;;;;;1893445;75;25206;-88
2023/11/05 14:37:04;;;;;;;6.13;4.37;;;7.40;99.90;;;;;;1897766;75;25263;-90
2023/11/05 14:39:52;;;;;;;10.87;6.57;;;7.40;99.90;;;;;;1900585;75;25193;-90
2023/11/05 14:42:40;;;;;;;11.63;4.93;;;7.40;99.90;;;;;;1877432;75;25311;-90
2023/11/05 14:45:30;;;;;;;12.07;5.53;;;7.40;99.90;;;;;;1882911;76;25377;-88
2023/11/05 14:48:19;;;;;;;14.07;7.20;;;7.40;99.90;;;;;;1871697;76;25292;-90
2023/11/05 14:51:08;;;;;;;11.57;6.13;;;7.40;99.90;;;;;;1870719;76;25191;-89
2023/11/05 14:53:57;;;;;;;12.17;6.50;;;7.40;99.90;;;;;;1842483;77;25256;-88
2023/11/05 14:56:46;;;;;;;12.90;6.13;;;7.30;99.90;;;;;;1879891;76;25215;-90
2023/11/05 14:59:34;;;;;;;15.07;6.00;;;7.30;99.90;;;;;;1864506;76;25714;-88
2023/11/05 15:02:23;;;;;;;10.20;4.67;;;7.30;99.90;;;;;;1883840;75;25289;-90
2023/11/05 15:05:13;;;;;;;9.37;4.70;;;7.30;99.90;;;;;;1871497;76;25246;-90
2023/11/05 15:08:02;;;;;;;13.17;5.83;;;7.30;99.90;;;;;;1864466;76;25230;-90
2023/11/05 15:10:50;;;;;;;13.70;6.47;;;7.30;99.90;;;;;;1869258;76;25263;-88
2023/11/05 15:13:39;;;;;;;13.27;6.07;;;7.30;99.90;;;;;;1856013;76;25182;-90
2023/11/05 15:19:12;;;;;;;11.20;5.80;;;7.20;99.90;;;;;;1953382;72;27422;-87
2023/11/05 15:22:02;;;;;;;14.73;6.83;;;7.20;99.90;;;;;;1925153;73;25288;-89
2023/11/05 15:24:51;;;;;;;13.90;6.27;;;7.30;99.90;;;;;;1935150;72;25273;-90
2023/11/05 15:27:40;;;;;;;15.60;7.63;;;7.30;99.90;;;;;;1925037;73;25711;-91
2023/11/05 15:33:26;;;;;;;13.50;6.73;;;7.30;99.90;;;;;;1950419;72;27061;-91
2023/11/05 15:36:14;;;;;;;14.10;7.10;;;7.30;99.90;;;;;;1920416;73;25339;-90
2023/11/05 15:39:03;;;;;;;14.37;6.40;;;7.30;99.90;;;;;;1929262;73;25286;-91
2023/11/05 15:41:52;;;;;;;12.40;6.67;;;7.40;99.90;;;;;;1925117;73;25288;-91
2023/11/05 15:44:42;;;;;;;17.87;6.60;;;7.30;99.90;;;;;;1905016;74;25306;-90
2023/11/05 15:47:30;;;;;;;16.07;7.80;;;7.30;99.90;;;;;;1921646;74;25229;-90
2023/11/05 15:50:19;;;;;;;18.03;7.60;;;7.30;99.90;;;;;;1911245;74;25184;-89
2023/11/05 15:53:09;;;;;;;14.07;6.97;;;7.30;99.90;;;;;;1920430;74;25194;-90
2023/11/05 15:55:58;;;;;;;19.33;7.50;;;7.30;99.90;;;;;;1922490;74;25742;-90
2023/11/05 16:01:26;;;;;;;14.10;7.07;;;7.30;99.90;;;;;;1922704;72;27022;-88
2023/11/05 16:04:15;;;;;;;10.53;6.77;;;7.30;99.90;;;;;;1905126;75;25354;-90
2023/11/05 16:07:04;;;;;;;14.00;7.00;;;7.30;99.90;;;;;;1884837;75;25247;-90
2023/11/05 16:09:53;;;;;;;14.50;7.27;;;7.30;99.90;;;;;;1888474;74;25317;-90
2023/11/05 16:12:42;;;;;;;14.23;7.13;;;7.30;99.90;;;;;;1898047;74;25300;-89
2023/11/05 16:15:31;;;;;;;12.07;6.47;;;7.20;99.90;;;;;;1898600;74;25285;-89
2023/11/05 16:18:20;;;;;;;21.43;10.87;;;7.20;99.90;;;;;;1907243;74;25285;-89
2023/11/05 16:21:08;;;;;;;15.03;8.27;;;7.30;99.90;;;;;;1904917;75;25180;-89
2023/11/05 16:23:57;;;;;;;15.17;8.87;;;7.30;99.90;;;;;;1894974;75;25379;-89
2023/11/05 16:26:46;;;;;;;13.20;7.67;;;7.30;99.90;;;;;;1904104;74;25206;-90
2023/11/05 16:29:34;;;;;;;14.47;7.63;;;7.30;99.90;;;;;;1896204;75;25816;-89
2023/11/05 16:32:23;;;;;;;12.03;7.07;;;7.30;99.90;;;;;;1888592;74;25248;-89
2023/11/05 16:37:50;;;;;;;17.92;9.13;;;7.20;99.90;;;;;;1931606;72;28679;-87
2023/11/05 16:40:40;;;;;;;17.20;8.60;;;7.20;99.90;;;;;;1896342;74;25238;-88
2023/11/05 16:43:29;;;;;;;20.23;8.07;;;7.30;99.90;;;;;;1901360;75;25286;-88
2023/11/05 16:46:17;;;;;;;13.93;7.70;;;7.20;99.90;;;;;;1892192;75;25233;-87
2023/11/05 16:49:06;;;;;;;14.03;7.83;;;7.30;99.90;;;;;;1903918;75;25307;-88
2023/11/05 16:51:56;;;;;;;15.80;7.90;;;7.30;99.90;;;;;;1878937;74;25475;-88
2023/11/05 16:54:47;;;;;;;14.77;8.47;;;7.30;99.90;;;;;;1883852;75;25301;-88
2023/11/05 16:57:35;;;;;;;18.73;9.07;;;7.30;99.90;;;;;;1884195;75;25254;-89
2023/11/05 17:03:06;;;;;;;22.23;7.83;;;7.30;99.90;;;;;;2025409;69;27185;-87
2023/11/05 17:05:54;;;;;;;13.57;6.90;;;7.40;99.90;;;;;;2006817;71;25293;-87
2023/11/05 17:08:43;;;;;;;14.70;7.77;;;7.40;99.90;;;;;;1993354;71;25246;-87
2023/11/05 17:11:32;;;;;;;17.47;8.17;;;7.40;99.90;;;;;;2003746;71;25236;-89
2023/11/05 17:14:21;;;;;;;14.17;7.87;;;7.40;99.90;;;;;;1995067;71;25203;-89
2023/11/05 17:17:10;;;;;;;15.40;8.17;;;7.40;99.90;;;;;;2000273;71;25230;-89
2023/11/05 17:22:42;;;;;;;17.93;7.70;;;7.40;99.90;;;;;;1929863;72;27618;-89
2023/11/05 17:25:31;;;;;;;15.17;8.07;;;7.30;99.90;;;;;;1905556;74;25248;-89
2023/11/05 17:28:19;;;;;;;16.50;7.73;;;7.30;99.90;;;;;;1901145;75;25231;-89
2023/11/05 17:31:08;;;;;;;13.93;6.70;;;7.30;99.90;;;;;;1911887;74;25278;-89
2023/11/05 17:33:58;;;;;;;15.33;8.30;;;7.30;99.90;;;;;;1905258;73;25696;-89
2023/11/05 17:36:47;;;;;;;16.17;7.77;;;7.30;99.90;;;;;;1914871;74;25739;-89
2023/11/05 17:39:36;;;;;;;15.27;8.00;;;7.40;99.90;;;;;;1902581;74;25246;-90
2023/11/05 17:42:24;;;;;;;16.10;8.63;;;7.40;99.90;;;;;;1903942;74;25836;-91
2023/11/05 17:45:13;;;;;;;13.10;8.80;;;7.40;99.90;;;;;;1911378;75;25265;-91
2023/11/05 17:50:47;;;;;;;14.27;7.47;;;7.40;99.90;;;;;;1933262;72;27145;-91
2023/11/05 17:56:21;;;;;;;25.67;9.67;;;7.40;99.90;;;;;;1947599;72;27200;-89
2023/11/05 17:59:10;;;;;;;15.87;9.10;;;7.40;99.90;;;;;;1886849;73;25255;-91
2023/11/05 18:04:51;;;;;;;17.83;9.00;;;7.30;99.90;;;;;;1940265;72;27449;-89
2023/11/05 18:07:40;;;;;;;22.33;9.43;;;7.30;99.90;;;;;;1923024;73;25283;-89
2023/11/05 18:10:30;;;;;;;18.97;9.07;;;7.40;99.90;;;;;;1916954;73;25190;-89
2023/11/05 18:13:19;;;;;;;21.13;9.43;;;7.50;99.90;;;;;;1916892;73;25213;-89
2023/11/05 18:16:08;;;;;;;18.07;8.63;;;7.40;99.90;;;;;;1916860;73;25248;-89
2023/11/05 18:18:56;;;;;;;17.57;8.77;;;7.40;99.90;;;;;;1932518;73;25675;-89
2023/11/05 18:21:46;;;;;;;18.03;8.30;;;7.40;99.90;;;;;;1923307;73;25707;-89
2023/11/05 18:24:35;;;;;;;25.03;9.80;;;7.40;99.90;;;;;;1919796;73;25266;-89
2023/11/05 18:27:23;;;;;;;19.60;9.33;;;7.50;99.90;;;;;;1934389;73;25193;-89
2023/11/05 18:30:13;;;;;;;19.00;9.23;;;7.50;99.90;;;;;;1917518;75;25216;-89
2023/11/05 18:33:01;;;;;;;16.73;8.70;;;7.60;99.90;;;;;;1921287;73;25165;-89
2023/11/05 18:35:50;;;;;;;17.43;8.07;;;7.60;99.90;;;;;;1921404;73;25258;-89
2023/11/05 18:38:39;;;;;;;16.67;8.17;;;7.60;99.90;;;;;;1933811;73;25195;-89
2023/11/05 18:41:29;;;;;;;21.73;8.50;;;7.50;99.90;;;;;;1926906;73;25293;-89
2023/11/05 19:13:51;;;;;;;13.67;7.10;;;7.70;99.90;;;;;;1963222;72;27042;-89
2023/11/05 19:19:41;;;;;;;16.23;7.53;;;7.70;99.90;;;;;;1961327;72;27124;-89
2023/11/05 19:22:43;;;;;;;17.73;7.47;;;7.70;99.90;;;;;;1925702;73;25203;-90
2023/11/05 19:25:32;;;;;;;14.77;7.13;;;7.70;99.90;;;;;;1947090;73;25216;-90
2023/11/05 19:28:25;;;;;;;12.20;7.30;;;7.70;99.90;;;;;;1894387;73;25311;-89
2023/11/05 19:31:23;;;;;;;11.03;6.27;;;7.70;99.90;;;;;;1922957;73;25716;-89
2023/11/05 19:34:14;;;;;;;15.63;5.37;;;7.70;99.90;;;;;;1923071;73;25169;-90
2023/11/05 19:37:07;;;;;;;14.57;8.00;;;7.70;99.90;;;;;;1920270;73;25722;-90
2023/11/05 19:39:58;;;;;;;15.07;7.57;;;7.60;99.90;;;;;;1926295;73;25198;-90
2023/11/05 19:43:10;;;;;;;11.50;7.40;;;7.70;99.90;;;;;;1922582;73;25270;-90
2023/11/05 19:46:01;;;;;;;19.43;7.80;;;7.70;99.90;;;;;;1910850;75;25245;-90
2023/11/05 19:56:43;;;;;;;12.13;7.70;;;7.70;99.90;;;;;;2027448;70;26006;-89
2023/11/05 19:59:32;;;;;;;13.30;7.37;;;7.70;99.90;;;;;;1982918;71;26542;-89
2023/11/05 20:02:20;;;;;;;20.07;10.57;;;7.60;99.90;;;;;;1984202;71;25126;-91
2023/11/05 20:05:10;;;;;;;7.60;5.50;;;7.60;99.90;;;;;;1971600;72;25561;-91
2023/11/05 20:07:59;;;;;;;9.47;4.90;;;7.70;99.90;;;;;;1993724;71;25261;-91
2023/11/05 20:10:48;;;;;;;13.80;7.30;;;7.60;99.90;;;;;;1988436;71;25298;-91
2023/11/05 20:13:37;;;;;;;18.17;7.10;;;7.60;99.90;;;;;;1992913;71;25701;-91
2023/11/05 20:16:26;;;;;;;11.03;6.90;;;7.60;99.90;;;;;;1978641;71;25197;-91
2023/11/05 20:19:15;;;;;;;15.13;8.03;;;7.50;99.90;;;;;;1982220;71;25221;-91
2023/11/05 20:22:04;;;;;;;12.57;7.40;;;7.50;99.90;;;;;;1986423;71;25205;-89
2023/11/05 20:24:53;;;;;;;12.50;7.50;;;7.60;99.90;;;;;;1991828;71;25212;-89
2023/11/05 20:27:41;;;;;;;17.50;8.20;;;7.50;99.90;;;;;;1991506;71;25693;-89
2023/11/05 20:30:29;;;;;;;17.07;8.27;;;7.60;99.90;;;;;;1990349;71;26448;-89
2023/11/05 20:33:21;;;;;;;15.20;8.13;;;7.50;99.90;;;;;;1992289;71;25247;-89
2023/11/05 20:36:10;;;;;;;22.83;9.20;;;7.50;99.90;;;;;;1994197;71;25209;-89
2023/11/05 20:39:00;;;;;;;15.17;8.17;;;7.60;99.90;;;;;;1996841;71;25196;-90
2023/11/05 20:44:42;;;;;;;16.77;8.30;;;7.60;99.90;;;;;;1944656;72;27100;-89
2023/11/05 20:47:31;;;;;;;14.83;8.50;;;7.60;99.90;;;;;;1918753;73;25288;-91
2023/11/05 20:50:20;;;;;;;14.63;8.27;;;7.60;99.90;;;;;;1921764;73;25310;-91
2023/11/05 20:53:09;;;;;;;19.40;8.63;;;7.60;99.90;;;;;;1917033;73;25191;-89
2023/11/05 20:55:58;;;;;;;18.40;8.00;;;7.60;99.90;;;;;;1931461;73;25289;-91
2023/11/05 20:58:46;;;;;;;17.17;7.57;;;7.60;99.90;;;;;;1926083;73;25314;-89
2023/11/05 21:01:36;;;;;;;16.80;8.43;;;7.60;99.90;;;;;;1922670;73;25243;-91
2023/11/05 21:04:24;;;;;;;18.00;8.37;;;7.50;99.90;;;;;;1918773;73;25246;-91
2023/11/05 21:07:13;;;;;;;18.80;8.40;;;7.50;99.90;;;;;;1922460;73;25235;-91
2023/11/05 21:10:03;;;;;;;21.27;9.07;;;7.50;99.90;;;;;;1916888;73;25261;-91
2023/11/05 21:12:52;;;;;;;15.77;7.93;;;7.50;99.90;;;;;;1920913;73;25689;-91
2023/11/05 21:15:41;;;;;;;20.63;9.73;;;7.50;99.90;;;;;;1916829;73;25252;-91
2023/11/05 21:18:29;;;;;;;16.13;8.37;;;7.40;99.90;;;;;;1926668;73;25211;-91
2023/11/05 21:21:18;;;;;;;20.70;9.77;;;7.50;99.90;;;;;;1921881;73;25290;-91
2023/11/05 21:24:07;;;;;;;17.80;8.67;;;7.60;99.90;;;;;;1923402;73;25842;-89
2023/11/05 21:26:56;;;;;;;16.53;8.80;;;7.60;99.90;;;;;;1918904;73;25270;-89
2023/11/05 21:29:45;;;;;;;17.03;9.03;;;7.60;99.90;;;;;;1884821;75;25297;-89
2023/11/05 21:32:34;;;;;;;15.30;9.00;;;7.60;99.90;;;;;;1918469;73;25280;-90
2023/11/05 21:35:24;;;;;;;16.23;9.43;;;7.50;99.90;;;;;;1931852;73;25908;-90
2023/11/05 21:38:13;;;;;;;18.30;8.17;;;7.50;99.90;;;;;;1920055;73;25164;-90
2023/11/05 21:41:02;;;;;;;21.80;9.57;;;7.50;99.90;;;;;;1920423;73;25268;-90
2023/11/05 21:43:50;;;;;;;20.70;10.13;;;7.50;99.90;;;;;;1906776;73;25751;-90
2023/11/05 21:49:24;;;;;;;16.27;8.87;;;7.40;99.90;;;;;;1931046;72;27106;-89
2023/11/05 21:54:53;;;;;;;21.97;9.80;;;7.40;99.90;;;;;;1967661;71;27051;-88
2023/11/05 21:57:42;;;;;;;20.70;9.87;;;7.30;99.90;;;;;;1913772;74;25475;-91
2023/11/05 22:00:31;;;;;;;16.40;9.27;;;7.40;99.90;;;;;;1910650;73;25261;-89
2023/11/05 22:16:25;;;;;;;15.87;8.90;;;7.50;99.90;;;;;;1874443;74;27140;-90
2023/11/05 22:22:00;;;;;;;17.50;9.53;;;7.30;99.90;;;;;;1948440;72;26982;-89